Terminal Aerodrome Forecast
Issued by NWS Knoxville/Tri Cities, TN

Home | Current Version | Previous Version | Text Only | Print | Product List | Glossary On
Versions: 1 2 3 4 5 6 7 8 9 10 11 12 13
000
FTUS44 KMRX 180520
TAFTRI
TAF
KTRI 180520Z 1806/1906 00000KT 2SM BR OVC008
     FM180800 00000KT 1SM BR OVC004
     FM181800 24003KT 6SM BR OVC008
     FM182000 24005KT P6SM OVC012
     FM190200 24003KT P6SM OVC008=

USA.gov is the U.S. government's official web portal to all federal, state and local government web resources and services.